Nils Larsson

Olheiro-Chefe - Falkenberg
13 Fev 2028
Domingo
Processo

Personalidade

Adaptabilidade (9) Ambição (8) Controvérsia (7) Lealdade (9) Pressão (19) Profissionalismo (15) Espírito Esportivo (5) Temperamento (18)

Perfil

Estilo de Treinamento Democrático
Licença Continental A
Determinação 7
Gestão de Pessoas 3
Motivação 5
Disciplina 10
Satisfação no Trabalho
100%
Fadiga
0%
Função Olheiro-Chefe
Salário 45.2K p/s
Contrato 14.03.2028

Desempenho

Comportamento Bom
Eficácia do Treinamento
34%
Desenvolvimento do Jogador
15%
Prevenção de Lesões
30%
Implementação Tática
50%

Eventos Recentes

Negociação de contrato iniciada agora
Participou de uma reunião de recrutamento agora
Negociação de contrato iniciada agora
Negociação de contrato iniciada agora
Negociação de contrato iniciada agora
Negociação de contrato iniciada 7d atrás
Negociação de contrato iniciada 7d atrás
Negociação de contrato iniciada 7d atrás

Monitorando agora

88
Jogador Clube Status Habilidade Confiança Observado Última observação Último voto
Robin Book BK Hacken Ativo 101 / 94 48% 1 01.02.2028 -
Altti Hellemaa IF Elfsborg Ativo 99 / 101 44% 1 01.03.2027 -
Stephen Humphrys Bradford City Ativo 93 / 102 40% 2 30.01.2027 -
Egas Cacintura Akhmat Grozny Ativo 101 / 121 40% 1 30.01.2027 -
Wandile Duba ASO Chlef Ativo 125 / 117 40% 2 28.01.2027 -
Elijas Gunnergård Ortan Ahrobiznes Ativo 64 / 84 40% 1 28.01.2027 -
Fiete Arp OB Ativo 129 / 122 40% 1 27.01.2027 -
Zach Ryan Ismaily Ativo 85 / 90 40% 3 26.01.2027 -
Richard Koné Queens Park Rangers Ativo 124 / 125 40% 1 26.01.2027 -
Malik Mothersille Stockport County Ativo 103 / 121 40% 2 23.01.2027 -
Daniel Vašulín Zbrojovka Brno Ativo 111 / 125 40% 2 19.01.2027 -
Piotr Samiec-Talar Wisla Krakow Ativo 108 / 106 40% 1 19.01.2027 -
Patrick Cutrone Monza Ativo 151 / 138 40% 2 18.01.2027 -
Moussa Yeo Swansea City Ativo 106 / 112 40% 1 18.01.2027 -
Elijah Adebayo Luton Town Ativo 123 / 133 40% 2 15.01.2027 -
Dale Taylor Blackpool Ativo 119 / 123 40% 2 15.01.2027 -
Sam Nombe Milton Keynes Dons Ativo 110 / 114 40% 1 14.01.2027 -
Bienvenue Kanakimana Zbrojovka Brno Ativo 122 / 105 40% 1 11.01.2027 -
Samuel Kalu Botev Plovdiv Ativo 119 / 128 40% 2 10.01.2027 -
Simone Mazzocchi Cosenza Ativo 133 / 122 40% 1 10.01.2027 -
Yousef Salech Cardiff City Ativo 118 / 123 40% 2 09.01.2027 -
Aaron Collins Milton Keynes Dons Ativo 141 / 127 40% 1 09.01.2027 -
Rhian Brewster Oleksandriya Ativo 119 / 116 40% 3 08.01.2027 -
Gabriel Charpentier Cracovia Ativo 135 / 105 40% 2 08.01.2027 -
Salah Mohsen El Masry Ativo 125 / 113 40% 1 05.01.2027 -
Matty Stevens AFC Wimbledon Ativo 122 / 110 40% 2 01.01.2027 -
Frederik Ihler IF Elfsborg Ativo 116 / 120 40% 4 30.12.2026 -
Lorent Tolaj Plymouth Argyle Ativo 132 / 119 40% 2 30.12.2026 -
Bradley Fink Wycombe Wanderers Ativo 119 / 101 40% 2 29.12.2026 -
Peter Itodo Metalist Ativo 106 / 122 40% 1 27.12.2026 -
Luca Moro Padova Ativo 128 / 129 40% 1 26.12.2026 -
Luis Caicedo Spartak 1918 Ativo 115 / 93 40% 1 25.12.2026 -
Kane Wilson Milton Keynes Dons Ativo 121 / 103 40% 1 20.12.2026 -
Max Cleworth Wrexham Ativo 118 / 117 40% 1 20.12.2026 -
Germán Berterame Inter Miami CF Ativo 129 / 145 40% 2 19.12.2026 -
Will Swan Bradford City Ativo 82 / 99 40% 1 19.12.2026 -
Peter Valjent FK Senica Ativo 128 / 123 40% 3 17.12.2026 -
Brayan Gil Baltika Ativo 109 / 110 40% 2 16.12.2026 -
Christian Annan Liberty Professionals Ativo 97 / 93 40% 1 15.12.2026 -
Job Ochieng Real Sociedad Ativo 91 / 110 40% 1 14.12.2026 -
Armstrong Oko-Flex Levski Ativo 121 / 131 40% 1 13.12.2026 -
Isaac Matondo Koper Ativo 129 / 118 40% 1 04.12.2026 -
Morgan Guilavogui Real Salt Lake Ativo 106 / 138 40% 5 02.12.2026 -
Nardin Mulahusejnović Vojvodina Ativo 103 / 111 40% 2 26.11.2026 -
Kwadwo Duah Ludogorets Ativo 142 / 130 40% 1 22.11.2026 -
Alberto Soro Dinamo Bucharest Ativo 137 / 130 40% 1 20.11.2026 -
Tio Cipot NK Maribor Ativo 113 / 118 40% 1 20.11.2026 -
Ondřej Lingr Korona Ativo 122 / 117 40% 4 19.11.2026 -
Oliver Brynéus Spartak Myjava Ativo 107 / 92 40% 3 17.11.2026 -
Leonardo Campana New England Revolution Ativo 106 / 124 40% 3 14.11.2026 -
Krisztofer Horváth Ujpest Ativo 116 / 118 40% 1 14.11.2026 -
Max Fenger Helsingborg Ativo 132 / 124 40% 1 07.11.2026 -
Ajdin Zeljković Halmstad Ativo 110 / 102 40% 3 04.11.2026 -
Dennis Gjengaar Valerenga Ativo 93 / 121 40% 1 31.10.2026 -
Mustapha Sangaré Levski Ativo 127 / 108 40% 1 30.10.2026 -
Kelvin Yeboah Minnesota United FC Ativo 117 / 114 40% 2 27.10.2026 -
Marcelo Torres Gimnasia La Plata Ativo 128 / 125 40% 1 21.10.2026 -
Matías Contrera Hrvatski Dragovoljac Ativo 105 / 99 40% 1 20.10.2026 -
Jeong Sang-Bin St. Louis CITY SC Ativo 99 / 105 40% 1 18.10.2026 -
Obilor Okeke Hammarby Ativo 109 / 123 40% 1 18.10.2026 -
Duncan McGuire Houston Dynamo Ativo 106 / 112 40% 1 09.10.2026 -
Maurice Malone Minnesota United FC Ativo 124 / 112 40% 2 08.10.2026 -
Daniel Karlsbakk Sarpsborg 08 Ativo 131 / 134 40% 2 07.10.2026 -
Bongokuhle Hlongwane Minnesota United FC Ativo 127 / 137 40% 1 07.10.2026 -
Tadeo Allende Inter Miami CF Ativo 144 / 128 40% 1 06.10.2026 -
Jay Stansfield Birmingham Ativo 107 / 135 40% 1 03.10.2026 -
Kristian Strømland Lien Djurgarden Ativo 129 / 110 40% 2 01.10.2026 -
Ramiro Ruiz Rodríguez Atlético Tucumán Ativo 104 / 111 40% 1 01.10.2026 -
Bo Hegland Djurgarden Ativo 92 / 112 40% 2 30.09.2026 -
Omar Faraj Halmstad Ativo 127 / 108 40% 2 28.09.2026 -
Cheikh Sabaly Vancouver Whitecaps Ativo 138 / 135 40% 2 27.09.2026 -
Mikhail Ignatov Sochi Ativo 136 / 117 40% 1 25.09.2026 -
Jeremy Ebobisse Los Angeles Football Club Ativo 105 / 131 40% 1 23.09.2026 -
Alexander Fesshaie Helsingborg Ativo 107 / 107 40% 1 22.09.2026 -
James Emo Rangers International Ativo 81 / 85 40% 1 17.09.2026 -
Assad Al Hamlawi Universitatea Craiova Ativo 103 / 120 40% 1 16.09.2026 -
Brandon Vázquez Austin FC Ativo 122 / 111 40% 1 15.09.2026 -
Ani Ozoemena Rivers United Ativo 99 / 86 40% 1 14.09.2026 -
Ayoub Jabbari FC Cincinnati Ativo 96 / 99 40% 1 14.09.2026 -
Darren Yapi Colorado Rapids Ativo 124 / 107 40% 1 13.09.2026 -
Erik Botheim Viking Ativo 125 / 118 40% 1 11.09.2026 -
Angel Zamudio Sport Huancayo Ativo 97 / 125 40% 1 11.09.2026 -
Brice Wembangomo BK Hacken Ativo 106 / 116 40% 1 10.09.2026 -
Eddie Segura Los Angeles Football Club Ativo 128 / 122 40% 1 07.09.2026 -
Jon Esenga IF Elfsborg Ativo 82 / 104 41% 1 10.08.2026 -
Paulos Abraham Hammarby Ativo 121 / 130 40% 1 10.08.2026 -
Hugo Aviander GIF Sundsvall Ativo 108 / 109 41% 1 03.08.2026 -
Jimmy Dunne Queens Park Rangers Ativo 104 / 119 40% 1 02.08.2026 -